TimeMST,TemperatureF,Dew PointF,Humidity,Sea Level PressureIn,VisibilityMPH,Wind Direction,Wind SpeedMPH,Gust SpeedMPH,PrecipitationIn,Events,Conditions,WindDirDegrees,DateUTC
12:53 AM,42.1,14.0,32,30.10,10.0,NNE,4.6,-,N/A,,Clear,20,2012-11-17 07:53:00
1:53 AM,43.0,15.1,32,30.09,10.0,North,4.6,-,N/A,,Clear,350,2012-11-17 08:53:00
2:53 AM,41.0,14.0,33,30.09,10.0,North,3.5,-,N/A,,Clear,10,2012-11-17 09:53:00
3:53 AM,39.9,16.0,38,30.08,10.0,NW,4.6,-,N/A,,Clear,320,2012-11-17 10:53:00
5:53 AM,41.0,16.0,36,30.12,10.0,WNW,3.5,-,N/A,,Clear,300,2012-11-17 12:53:00
6:53 AM,41.0,17.1,38,30.14,10.0,Calm,Calm,-,N/A,,Clear,0,2012-11-17 13:53:00
7:53 AM,45.0,18.0,34,30.16,10.0,Calm,Calm,-,N/A,,Clear,0,2012-11-17 14:53:00
8:53 AM,51.1,19.9,29,30.16,10.0,NNE,5.8,-,N/A,,Clear,30,2012-11-17 15:53:00
9:53 AM,57.0,26.1,30,30.14,10.0,East,10.4,-,N/A,,Partly Cloudy,80,2012-11-17 16:53:00
10:53 AM,59.0,26.1,28,30.14,10.0,East,9.2,-,N/A,,Mostly Cloudy,100,2012-11-17 17:53:00
11:53 AM,62.1,27.0,26,30.14,10.0,West,6.9,-,N/A,,Clear,270,2012-11-17 18:53:00
12:53 PM,62.1,27.0,26,30.09,10.0,Calm,Calm,-,0.00,,Overcast,0,2012-11-17 19:53:00
1:53 PM,64.0,27.0,25,30.06,10.0,Calm,Calm,-,N/A,,Mostly Cloudy,0,2012-11-17 20:53:00
2:53 PM,64.9,27.0,24,30.05,10.0,Calm,Calm,-,N/A,,Mostly Cloudy,0,2012-11-17 21:53:00
3:53 PM,66.0,27.0,23,30.06,10.0,Calm,Calm,-,N/A,,Overcast,0,2012-11-17 22:53:00
4:53 PM,63.0,28.0,27,30.05,10.0,Calm,Calm,-,N/A,,Partly Cloudy,0,2012-11-17 23:53:00
5:53 PM,57.9,28.0,32,30.06,10.0,Calm,Calm,-,N/A,,Clear,0,2012-11-18 00:53:00
6:53 PM,57.0,27.0,32,30.06,10.0,NE,8.1,-,N/A,,Clear,50,2012-11-18 01:53:00
7:53 PM,55.9,26.1,32,30.06,10.0,North,4.6,-,N/A,,Partly Cloudy,360,2012-11-18 02:53:00
8:53 PM,52.0,25.0,35,30.06,10.0,Calm,Calm,-,N/A,,Clear,0,2012-11-18 03:53:00
9:53 PM,50.0,25.0,38,30.04,10.0,Calm,Calm,-,N/A,,Clear,0,2012-11-18 04:53:00
10:53 PM,51.1,27.0,39,30.05,10.0,NW,4.6,-,N/A,,Mostly Cloudy,320,2012-11-18 05:53:00
11:53 PM,50.0,27.0,41,30.04,10.0,West,3.5,-,N/A,,Partly Cloudy,280,2012-11-18 06:53:00